^^
Saratoga-Weather Station Historical Data
Daily Summary for February 24, 2020 Units:  Both    English   Metric
Daily Weekly Monthly Yearly Custom
  High: Low: Average:
Temperature: 64.6 °F /  18.1 °C 46.9 °F /  8.3 °C 55.6 °F /  13.1 °C
Dew Point: 50.9 °F /  10.5 °C 43.9 °F /  6.6 °C 47.8 °F /  8.8 °C
Humidity: 95% 57% 77%
Wind Speed: 14.1mph /  22.7km/h - 4.1mph /  6.6km/h
Wind Gust: 16mph /  25.7km/h - -
Wind- - West
Pressure: 30.5 in /  1031.8 hPa 30.4 in /  1028.5 hPa -
Precipitation: 0 in /  0.0 mm    
Historical Graphs
 
 
Tabular Data for February 24, 2020
Time Temperature Dew Point Pressure Wind Wind Speed Wind Gust Humidity Rainfall Rate (Hourly) solar
00:01 49.3 °F /  9.6 °C 47.8 °F /  8.8 °C 30.4in /  1028.8hPa North 2.9mph /  4.7km/h 4mph /  6.4km/h 95% 0in /  0.0mm 0 W/m2
00:06 49.3 °F /  9.6 °C 47.7 °F /  8.7 °C 30.4in /  1028.8hPa West 0.9mph /  1.4km/h 7mph /  11.3km/h 94% 0in /  0.0mm 0 W/m2
00:11 49.3 °F /  9.6 °C 47.7 °F /  8.7 °C 30.4in /  1028.8hPa North 2mph /  3.2km/h 3mph /  4.8km/h 94% 0in /  0.0mm 0 W/m2
00:16 49.3 °F /  9.6 °C 47.7 °F /  8.7 °C 30.4in /  1028.8hPa West 2mph /  3.2km/h 6mph /  9.7km/h 94% 0in /  0.0mm 0 W/m2
00:21 49.3 °F /  9.6 °C 47.7 °F /  8.7 °C 30.4in /  1028.8hPa West 2mph /  3.2km/h 7mph /  11.3km/h 94% 0in /  0.0mm 0 W/m2
00:26 49.3 °F /  9.6 °C 47.7 °F /  8.7 °C 30.4in /  1028.5hPa SSW 0.9mph /  1.4km/h 5mph /  8km/h 94% 0in /  0.0mm 0 W/m2
00:31 49.5 °F /  9.7 °C 47.5 °F /  8.6 °C 30.4in /  1028.8hPa West 2.9mph /  4.7km/h 7mph /  11.3km/h 93% 0in /  0.0mm 0 W/m2
00:36 49.5 °F /  9.7 °C 47.5 °F /  8.6 °C 30.4in /  1028.8hPa Calm   8mph /  12.9km/h 93% 0in /  0.0mm 0 W/m2
00:41 49.5 °F /  9.7 °C 47.5 °F /  8.6 °C 30.4in /  1028.8hPa West 2mph /  3.2km/h 3mph /  4.8km/h 93% 0in /  0.0mm 0 W/m2
00:46 49.5 °F /  9.7 °C 47.5 °F /  8.6 °C 30.4in /  1028.8hPa WSW 0.9mph /  1.4km/h 8mph /  12.9km/h 93% 0in /  0.0mm 0 W/m2
00:51 49.3 °F /  9.6 °C 47.3 °F /  8.5 °C 30.4in /  1028.5hPa West 2mph /  3.2km/h 4mph /  6.4km/h 93% 0in /  0.0mm 0 W/m2
00:56 49.5 °F /  9.7 °C 47.5 °F /  8.6 °C 30.4in /  1028.5hPa South 4.9mph /  7.9km/h 5mph /  8km/h 93% 0in /  0.0mm 0 W/m2
01:01 49.5 °F /  9.7 °C 47.5 °F /  8.6 °C 30.4in /  1028.5hPa NNW 0.9mph /  1.4km/h 4mph /  6.4km/h 93% 0in /  0.0mm 0 W/m2
01:06 49.5 °F /  9.7 °C 47.3 °F /  8.5 °C 30.4in /  1028.5hPa WSW 0.9mph /  1.4km/h 4mph /  6.4km/h 92% 0in /  0.0mm 0 W/m2
01:11 49.3 °F /  9.6 °C 47.1 °F /  8.4 °C 30.4in /  1028.5hPa SW 2.9mph /  4.7km/h 3mph /  4.8km/h 92% 0in /  0.0mm 0 W/m2
01:16 49.3 °F /  9.6 °C 47.1 °F /  8.4 °C 30.4in /  1028.5hPa WSW 2mph /  3.2km/h 5mph /  8km/h 92% 0in /  0.0mm 0 W/m2
01:21 49.3 °F /  9.6 °C 47.1 °F /  8.4 °C 30.4in /  1028.5hPa WSW 4.9mph /  7.9km/h 6mph /  9.7km/h 92% 0in /  0.0mm 0 W/m2
01:26 49.3 °F /  9.6 °C 47.1 °F /  8.4 °C 30.4in /  1028.5hPa WNW 2.9mph /  4.7km/h 6mph /  9.7km/h 92% 0in /  0.0mm 0 W/m2
01:31 49.3 °F /  9.6 °C 47.1 °F /  8.4 °C 30.4in /  1028.5hPa WNW 0.9mph /  1.4km/h 4mph /  6.4km/h 92% 0in /  0.0mm 0 W/m2
01:36 49.3 °F /  9.6 °C 47.1 °F /  8.4 °C 30.4in /  1028.5hPa WNW 2.9mph /  4.7km/h 5mph /  8km/h 92% 0in /  0.0mm 0 W/m2
01:41 49.3 °F /  9.6 °C 47.1 °F /  8.4 °C 30.4in /  1028.5hPa WNW 2.9mph /  4.7km/h 4mph /  6.4km/h 92% 0in /  0.0mm 0 W/m2
01:46 49.5 °F /  9.7 °C 46.9 °F /  8.3 °C 30.4in /  1028.8hPa NW 4.9mph /  7.9km/h 8mph /  12.9km/h 91% 0in /  0.0mm 0 W/m2
01:51 49.5 °F /  9.7 °C 46.9 °F /  8.3 °C 30.4in /  1028.8hPa WNW 6.9mph /  11.1km/h 9mph /  14.5km/h 91% 0in /  0.0mm 0 W/m2
01:56 49.5 °F /  9.7 °C 46.9 °F /  8.3 °C 30.4in /  1028.8hPa West 6mph /  9.7km/h 9mph /  14.5km/h 91% 0in /  0.0mm 0 W/m2
02:01 49.3 °F /  9.6 °C 46.8 °F /  8.2 °C 30.4in /  1028.8hPa WNW 2mph /  3.2km/h 5mph /  8km/h 91% 0in /  0.0mm 0 W/m2
02:06 49.3 °F /  9.6 °C 46.8 °F /  8.2 °C 30.4in /  1028.8hPa NW 2.9mph /  4.7km/h 8mph /  12.9km/h 91% 0in /  0.0mm 0 W/m2
02:11 49.1 °F /  9.5 °C 46.6 °F /  8.1 °C 30.4in /  1028.8hPa WNW 4mph /  6.4km/h 5mph /  8km/h 91% 0in /  0.0mm 0 W/m2
02:16 49.1 °F /  9.5 °C 46.6 °F /  8.1 °C 30.4in /  1028.8hPa WNW 2.9mph /  4.7km/h 4mph /  6.4km/h 91% 0in /  0.0mm 0 W/m2
02:21 48.9 °F /  9.4 °C 46.4 °F /  8 °C 30.4in /  1028.8hPa NW 2.9mph /  4.7km/h 6mph /  9.7km/h 91% 0in /  0.0mm 0 W/m2
02:26 48.9 °F /  9.4 °C 46.4 °F /  8 °C 30.4in /  1028.8hPa WSW 2.9mph /  4.7km/h 4mph /  6.4km/h 91% 0in /  0.0mm 0 W/m2
02:31 48.7 °F /  9.3 °C 46.2 °F /  7.9 °C 30.4in /  1028.8hPa WNW 2.9mph /  4.7km/h 5mph /  8km/h 91% 0in /  0.0mm 0 W/m2
02:36 48.7 °F /  9.3 °C 46.2 °F /  7.9 °C 30.4in /  1028.8hPa WNW 2.9mph /  4.7km/h 9mph /  14.5km/h 91% 0in /  0.0mm 0 W/m2
02:41 48.6 °F /  9.2 °C 46 °F /  7.8 °C 30.4in /  1028.8hPa North 2mph /  3.2km/h 7mph /  11.3km/h 91% 0in /  0.0mm 0 W/m2
02:46 48.6 °F /  9.2 °C 46 °F /  7.8 °C 30.4in /  1028.8hPa NW 0.9mph /  1.4km/h 9mph /  14.5km/h 91% 0in /  0.0mm 0 W/m2
02:51 48.6 °F /  9.2 °C 46 °F /  7.8 °C 30.4in /  1028.8hPa Calm   2mph /  3.2km/h 91% 0in /  0.0mm 0 W/m2
02:56 48.6 °F /  9.2 °C 45.7 °F /  7.6 °C 30.4in /  1028.8hPa WSW 4mph /  6.4km/h 6mph /  9.7km/h 90% 0in /  0.0mm 0 W/m2
03:01 48.6 °F /  9.2 °C 45.7 °F /  7.6 °C 30.4in /  1028.8hPa NW 2mph /  3.2km/h 6mph /  9.7km/h 90% 0in /  0.0mm 0 W/m2
03:06 48.6 °F /  9.2 °C 45.7 °F /  7.6 °C 30.4in /  1028.8hPa WNW 0.9mph /  1.4km/h 4mph /  6.4km/h 90% 0in /  0.0mm 0 W/m2
03:11 48.6 °F /  9.2 °C 45.5 °F /  7.5 °C 30.4in /  1028.8hPa Calm   4mph /  6.4km/h 89% 0in /  0.0mm 0 W/m2
03:16 48.4 °F /  9.1 °C 45.5 °F /  7.5 °C 30.4in /  1028.8hPa NW 4.9mph /  7.9km/h 6mph /  9.7km/h 90% 0in /  0.0mm 0 W/m2
03:21 48.2 °F /  9 °C 45.3 °F /  7.4 °C 30.4in /  1028.8hPa WNW 2.9mph /  4.7km/h 3mph /  4.8km/h 90% 0in /  0.0mm 0 W/m2
03:26 48.2 °F /  9 °C 45.3 °F /  7.4 °C 30.4in /  1028.8hPa NW 2.9mph /  4.7km/h 3mph /  4.8km/h 90% 0in /  0.0mm 0 W/m2
03:31 48 °F /  8.9 °C 45.1 °F /  7.3 °C 30.4in /  1028.8hPa NW 2mph /  3.2km/h 2mph /  3.2km/h 90% 0in /  0.0mm 0 W/m2
03:36 48 °F /  8.9 °C 45.1 °F /  7.3 °C 30.4in /  1028.8hPa NNW 2mph /  3.2km/h 3mph /  4.8km/h 90% 0in /  0.0mm 0 W/m2
03:41 47.8 °F /  8.8 °C 45 °F /  7.2 °C 30.4in /  1028.8hPa NW 2.9mph /  4.7km/h 4mph /  6.4km/h 90% 0in /  0.0mm 0 W/m2
03:46 47.8 °F /  8.8 °C 45 °F /  7.2 °C 30.4in /  1028.8hPa WNW 2mph /  3.2km/h 4mph /  6.4km/h 90% 0in /  0.0mm 0 W/m2
03:51 47.8 °F /  8.8 °C 45 °F /  7.2 °C 30.4in /  1028.8hPa West 2mph /  3.2km/h 4mph /  6.4km/h 90% 0in /  0.0mm 0 W/m2
03:56 47.8 °F /  8.8 °C 45 °F /  7.2 °C 30.4in /  1028.8hPa NW 2mph /  3.2km/h 4mph /  6.4km/h 90% 0in /  0.0mm 0 W/m2
04:01 48 °F /  8.9 °C 45.1 °F /  7.3 °C 30.4in /  1028.8hPa NW 2.9mph /  4.7km/h 4mph /  6.4km/h 90% 0in /  0.0mm 0 W/m2
04:06 47.8 °F /  8.8 °C 45 °F /  7.2 °C 30.4in /  1028.8hPa WNW 2.9mph /  4.7km/h 7mph /  11.3km/h 90% 0in /  0.0mm 0 W/m2
04:11 47.7 °F /  8.7 °C 45 °F /  7.2 °C 30.4in /  1028.8hPa WNW 2mph /  3.2km/h 6mph /  9.7km/h 90% 0in /  0.0mm 0 W/m2
04:16 47.7 °F /  8.7 °C 45 °F /  7.2 °C 30.4in /  1029.1hPa WSW 2.9mph /  4.7km/h 4mph /  6.4km/h 90% 0in /  0.0mm 0 W/m2
04:21 47.7 °F /  8.7 °C 45 °F /  7.2 °C 30.4in /  1029.1hPa West 2.9mph /  4.7km/h 7mph /  11.3km/h 90% 0in /  0.0mm 0 W/m2
04:26 47.5 °F /  8.6 °C 44.8 °F /  7.1 °C 30.4in /  1029.1hPa WSW 4.9mph /  7.9km/h 5mph /  8km/h 90% 0in /  0.0mm 0 W/m2
04:31 47.5 °F /  8.6 °C 44.8 °F /  7.1 °C 30.4in /  1029.1hPa WNW 2mph /  3.2km/h 7mph /  11.3km/h 90% 0in /  0.0mm 0 W/m2
04:36 47.7 °F /  8.7 °C 45 °F /  7.2 °C 30.4in /  1029.1hPa NW 2mph /  3.2km/h 4mph /  6.4km/h 90% 0in /  0.0mm 0 W/m2
04:41 47.7 °F /  8.7 °C 45 °F /  7.2 °C 30.4in /  1029.1hPa West 2mph /  3.2km/h 4mph /  6.4km/h 90% 0in /  0.0mm 0 W/m2
04:46 47.5 °F /  8.6 °C 44.8 °F /  7.1 °C 30.4in /  1029.5hPa WNW 2mph /  3.2km/h 4mph /  6.4km/h 90% 0in /  0.0mm 0 W/m2
04:51 47.3 °F /  8.5 °C 44.6 °F /  7 °C 30.4in /  1029.5hPa West 2mph /  3.2km/h 8mph /  12.9km/h 90% 0in /  0.0mm 0 W/m2
04:56 47.1 °F /  8.4 °C 44.4 °F /  6.9 °C 30.4in /  1029.5hPa SW 0.9mph /  1.4km/h 3mph /  4.8km/h 90% 0in /  0.0mm 0 W/m2
05:01 47.1 °F /  8.4 °C 44.4 °F /  6.9 °C 30.4in /  1029.5hPa NW 0.9mph /  1.4km/h 4mph /  6.4km/h 90% 0in /  0.0mm 0 W/m2
05:06 47.1 °F /  8.4 °C 44.4 °F /  6.9 °C 30.4in /  1029.5hPa NNW 2mph /  3.2km/h 4mph /  6.4km/h 90% 0in /  0.0mm 0 W/m2
05:11 46.9 °F /  8.3 °C 44.2 °F /  6.8 °C 30.4in /  1029.5hPa WNW 2.9mph /  4.7km/h 6mph /  9.7km/h 90% 0in /  0.0mm 0 W/m2
05:16 46.9 °F /  8.3 °C 44.2 °F /  6.8 °C 30.4in /  1029.5hPa NNW 2mph /  3.2km/h 4mph /  6.4km/h 90% 0in /  0.0mm 0 W/m2
05:21 46.9 °F /  8.3 °C 44.2 °F /  6.8 °C 30.4in /  1029.5hPa NNW 4mph /  6.4km/h 4mph /  6.4km/h 90% 0in /  0.0mm 0 W/m2
05:26 46.9 °F /  8.3 °C 44.2 °F /  6.8 °C 30.4in /  1029.5hPa NW 2.9mph /  4.7km/h 7mph /  11.3km/h 90% 0in /  0.0mm 0 W/m2
05:31 46.9 °F /  8.3 °C 43.9 °F /  6.6 °C 30.4in /  1029.5hPa NW 4mph /  6.4km/h 4mph /  6.4km/h 89% 0in /  0.0mm 0 W/m2
05:36 46.9 °F /  8.3 °C 43.9 °F /  6.6 °C 30.4in /  1029.5hPa WSW 2.9mph /  4.7km/h 6mph /  9.7km/h 89% 0in /  0.0mm 0 W/m2
05:41 46.9 °F /  8.3 °C 43.9 °F /  6.6 °C 30.4in /  1029.5hPa WNW 2.9mph /  4.7km/h 7mph /  11.3km/h 89% 0in /  0.0mm 0 W/m2
05:46 47.1 °F /  8.4 °C 44.1 °F /  6.7 °C 30.4in /  1029.5hPa SW 2.9mph /  4.7km/h 4mph /  6.4km/h 89% 0in /  0.0mm 7 W/m2
05:51 47.1 °F /  8.4 °C 44.1 °F /  6.7 °C 30.4in /  1029.5hPa WNW 4mph /  6.4km/h 6mph /  9.7km/h 89% 0in /  0.0mm 9 W/m2
05:56 47.1 °F /  8.4 °C 44.1 °F /  6.7 °C 30.4in /  1029.5hPa NW 2.9mph /  4.7km/h 6mph /  9.7km/h 89% 0in /  0.0mm 11 W/m2
06:01 47.3 °F /  8.5 °C 43.9 °F /  6.6 °C 30.4in /  1029.5hPa WNW 4mph /  6.4km/h 6mph /  9.7km/h 88% 0in /  0.0mm 14 W/m2
06:06 47.5 °F /  8.6 °C 44.1 °F /  6.7 °C 30.4in /  1029.5hPa West 4mph /  6.4km/h 4mph /  6.4km/h 88% 0in /  0.0mm 19 W/m2
06:11 47.5 °F /  8.6 °C 44.1 °F /  6.7 °C 30.4in /  1029.5hPa West 2.9mph /  4.7km/h 6mph /  9.7km/h 88% 0in /  0.0mm 26 W/m2
06:16 47.7 °F /  8.7 °C 44.1 °F /  6.7 °C 30.4in /  1029.5hPa West 6.9mph /  11.1km/h 7mph /  11.3km/h 87% 0in /  0.0mm 37 W/m2
06:21 47.8 °F /  8.8 °C 44.2 °F /  6.8 °C 30.4in /  1029.5hPa WSW 4mph /  6.4km/h 7mph /  11.3km/h 87% 0in /  0.0mm 47 W/m2
06:26 47.8 °F /  8.8 °C 44.2 °F /  6.8 °C 30.4in /  1029.8hPa West 6mph /  9.7km/h 9mph /  14.5km/h 87% 0in /  0.0mm 54 W/m2
06:31 47.8 °F /  8.8 °C 44.2 °F /  6.8 °C 30.4in /  1029.8hPa West 8.1mph /  13km/h 10mph /  16.1km/h 87% 0in /  0.0mm 58 W/m2
06:36 48 °F /  8.9 °C 44.4 °F /  6.9 °C 30.4in /  1029.8hPa West 2.9mph /  4.7km/h 5mph /  8km/h 87% 0in /  0.0mm 65 W/m2
06:41 48 °F /  8.9 °C 44.4 °F /  6.9 °C 30.4in /  1029.8hPa SSW 4mph /  6.4km/h 7mph /  11.3km/h 87% 0in /  0.0mm 76 W/m2
06:46 48.2 °F /  9 °C 44.6 °F /  7 °C 30.4in /  1029.8hPa West 2mph /  3.2km/h 6mph /  9.7km/h 87% 0in /  0.0mm 84 W/m2
06:51 48.4 °F /  9.1 °C 44.8 °F /  7.1 °C 30.4in /  1029.8hPa SW 6mph /  9.7km/h 8mph /  12.9km/h 87% 0in /  0.0mm 95 W/m2
06:56 48.6 °F /  9.2 °C 44.8 °F /  7.1 °C 30.4in /  1029.8hPa West 2mph /  3.2km/h 7mph /  11.3km/h 87% 0in /  0.0mm 107 W/m2
07:01 48.6 °F /  9.2 °C 44.8 °F /  7.1 °C 30.4in /  1029.8hPa West 2.9mph /  4.7km/h 6mph /  9.7km/h 87% 0in /  0.0mm 116 W/m2
07:06 48.7 °F /  9.3 °C 45 °F /  7.2 °C 30.4in /  1030.1hPa WNW 4mph /  6.4km/h 5mph /  8km/h 87% 0in /  0.0mm 123 W/m2
07:11 48.7 °F /  9.3 °C 45 °F /  7.2 °C 30.4in /  1030.1hPa WNW 2.9mph /  4.7km/h 8mph /  12.9km/h 87% 0in /  0.0mm 114 W/m2
07:16 48.7 °F /  9.3 °C 44.8 °F /  7.1 °C 30.4in /  1030.1hPa West 4mph /  6.4km/h 7mph /  11.3km/h 86% 0in /  0.0mm 107 W/m2
07:21 48.9 °F /  9.4 °C 45 °F /  7.2 °C 30.4in /  1030.1hPa WNW 4mph /  6.4km/h 7mph /  11.3km/h 86% 0in /  0.0mm 105 W/m2
07:26 48.9 °F /  9.4 °C 45.1 °F /  7.3 °C 30.4in /  1030.1hPa West 6.9mph /  11.1km/h 8mph /  12.9km/h 87% 0in /  0.0mm 118 W/m2
07:31 49.5 °F /  9.7 °C 45.5 °F /  7.5 °C 30.4in /  1030.1hPa West 6mph /  9.7km/h 10mph /  16.1km/h 86% 0in /  0.0mm 127 W/m2
07:36 49.8 °F /  9.9 °C 45.9 °F /  7.7 °C 30.4in /  1030.1hPa SW 4.9mph /  7.9km/h 8mph /  12.9km/h 86% 0in /  0.0mm 139 W/m2
07:41 50.4 °F /  10.2 °C 46 °F /  7.8 °C 30.4in /  1030.1hPa West 8.9mph /  14.3km/h 13mph /  20.9km/h 85% 0in /  0.0mm 171 W/m2
07:46 50.7 °F /  10.4 °C 46.4 °F /  8 °C 30.4in /  1030.1hPa WSW 6.9mph /  11.1km/h 8mph /  12.9km/h 85% 0in /  0.0mm 295 W/m2
07:51 51.1 °F /  10.6 °C 46.4 °F /  8 °C 30.4in /  1030.1hPa WSW 2.9mph /  4.7km/h 12mph /  19.3km/h 84% 0in /  0.0mm 276 W/m2
07:56 51.3 °F /  10.7 °C 46.9 °F /  8.3 °C 30.4in /  1030.1hPa WNW 2.9mph /  4.7km/h 8mph /  12.9km/h 85% 0in /  0.0mm 297 W/m2
08:01 51.4 °F /  10.8 °C 47.1 °F /  8.4 °C 30.4in /  1030.1hPa West 6mph /  9.7km/h 7mph /  11.3km/h 85% 0in /  0.0mm 332 W/m2
08:06 51.4 °F /  10.8 °C 47.1 °F /  8.4 °C 30.4in /  1030.1hPa West 4mph /  6.4km/h 8mph /  12.9km/h 85% 0in /  0.0mm 272 W/m2
08:11 51.6 °F /  10.9 °C 47.3 °F /  8.5 °C 30.4in /  1030.1hPa NW 6mph /  9.7km/h 13mph /  20.9km/h 85% 0in /  0.0mm 285 W/m2
08:16 51.6 °F /  10.9 °C 47.3 °F /  8.5 °C 30.4in /  1030.5hPa WNW 2.9mph /  4.7km/h 8mph /  12.9km/h 85% 0in /  0.0mm 308 W/m2
08:21 51.8 °F /  11 °C 47.5 °F /  8.6 °C 30.4in /  1030.5hPa WSW 6.9mph /  11.1km/h 8mph /  12.9km/h 85% 0in /  0.0mm 315 W/m2
08:26 51.8 °F /  11 °C 47.5 °F /  8.6 °C 30.4in /  1030.5hPa West 8.9mph /  14.3km/h 12mph /  19.3km/h 85% 0in /  0.0mm 281 W/m2
08:31 51.8 °F /  11 °C 47.5 °F /  8.6 °C 30.4in /  1030.5hPa West 6mph /  9.7km/h 6mph /  9.7km/h 85% 0in /  0.0mm 274 W/m2
08:36 52 °F /  11.1 °C 47.3 °F /  8.5 °C 30.4in /  1030.5hPa NW 6mph /  9.7km/h 11mph /  17.7km/h 84% 0in /  0.0mm 304 W/m2
08:41 52 °F /  11.1 °C 47.7 °F /  8.7 °C 30.4in /  1030.5hPa NNW 2.9mph /  4.7km/h 6mph /  9.7km/h 85% 0in /  0.0mm 329 W/m2
08:46 52 °F /  11.1 °C 47.3 °F /  8.5 °C 30.4in /  1030.5hPa NW 8.9mph /  14.3km/h 11mph /  17.7km/h 84% 0in /  0.0mm 279 W/m2
08:51 51.8 °F /  11 °C 47.5 °F /  8.6 °C 30.4in /  1030.8hPa SW 8.1mph /  13km/h 10mph /  16.1km/h 85% 0in /  0.0mm 287 W/m2
08:57 51.8 °F /  11 °C 47.5 °F /  8.6 °C 30.4in /  1030.8hPa West 4mph /  6.4km/h 8mph /  12.9km/h 85% 0in /  0.0mm 295 W/m2
09:02 52 °F /  11.1 °C 47.3 °F /  8.5 °C 30.4in /  1030.8hPa WNW 4mph /  6.4km/h 7mph /  11.3km/h 84% 0in /  0.0mm 295 W/m2
09:07 52 °F /  11.1 °C 47.3 °F /  8.5 °C 30.4in /  1030.8hPa West 6.9mph /  11.1km/h 14mph /  22.5km/h 84% 0in /  0.0mm 295 W/m2
09:12 52 °F /  11.1 °C 47.3 °F /  8.5 °C 30.4in /  1030.8hPa WNW 8.1mph /  13km/h 8mph /  12.9km/h 84% 0in /  0.0mm 283 W/m2
09:17 52 °F /  11.1 °C 46.9 °F /  8.3 °C 30.4in /  1030.8hPa WNW 2.9mph /  4.7km/h 12mph /  19.3km/h 83% 0in /  0.0mm 399 W/m2
09:22 52.3 °F /  11.3 °C 47.7 °F /  8.7 °C 30.5in /  1031.2hPa WNW 6.9mph /  11.1km/h 10mph /  16.1km/h 84% 0in /  0.0mm 415 W/m2
09:27 52.3 °F /  11.3 °C 47.3 °F /  8.5 °C 30.4in /  1030.8hPa WNW 4mph /  6.4km/h 6mph /  9.7km/h 83% 0in /  0.0mm 450 W/m2
09:32 52.5 °F /  11.4 °C 47.5 °F /  8.6 °C 30.5in /  1031.2hPa West 8.9mph /  14.3km/h 11mph /  17.7km/h 83% 0in /  0.0mm 417 W/m2
09:37 52.9 °F /  11.6 °C 48.2 °F /  9 °C 30.4in /  1030.8hPa WSW 4mph /  6.4km/h 7mph /  11.3km/h 84% 0in /  0.0mm 622 W/m2
09:42 53.2 °F /  11.8 °C 47.8 °F /  8.8 °C 30.5in /  1031.2hPa NW 4mph /  6.4km/h 9mph /  14.5km/h 82% 0in /  0.0mm 598 W/m2
09:47 53.4 °F /  11.9 °C 47.7 °F /  8.7 °C 30.5in /  1031.2hPa West 8.1mph /  13km/h 12mph /  19.3km/h 81% 0in /  0.0mm 599 W/m2
09:52 53.8 °F /  12.1 °C 48 °F /  8.9 °C 30.5in /  1031.2hPa WNW 4mph /  6.4km/h 13mph /  20.9km/h 81% 0in /  0.0mm 515 W/m2
09:57 54 °F /  12.2 °C 48.2 °F /  9 °C 30.4in /  1030.8hPa West 2.9mph /  4.7km/h 4mph /  6.4km/h 81% 0in /  0.0mm 171 W/m2
10:02 54.1 °F /  12.3 °C 48 °F /  8.9 °C 30.5in /  1031.2hPa NW 4.9mph /  7.9km/h 13mph /  20.9km/h 80% 0in /  0.0mm 160 W/m2
10:07 54.3 °F /  12.4 °C 48.2 °F /  9 °C 30.4in /  1030.8hPa West 6mph /  9.7km/h 10mph /  16.1km/h 80% 0in /  0.0mm 712 W/m2
10:12 54.7 °F /  12.6 °C 48.6 °F /  9.2 °C 30.5in /  1031.2hPa WNW 4.9mph /  7.9km/h 9mph /  14.5km/h 80% 0in /  0.0mm 287 W/m2
10:17 54.7 °F /  12.6 °C 48.4 °F /  9.1 °C 30.4in /  1030.8hPa WSW 6mph /  9.7km/h 6mph /  9.7km/h 79% 0in /  0.0mm 297 W/m2
10:22 54.7 °F /  12.6 °C 48 °F /  8.9 °C 30.5in /  1031.2hPa West 2.9mph /  4.7km/h 10mph /  16.1km/h 78% 0in /  0.0mm 745 W/m2
10:27 55 °F /  12.8 °C 48.4 °F /  9.1 °C 30.5in /  1031.2hPa NW 8.1mph /  13km/h 13mph /  20.9km/h 78% 0in /  0.0mm 844 W/m2
10:32 55 °F /  12.8 °C 48.4 °F /  9.1 °C 30.5in /  1031.2hPa SW 6mph /  9.7km/h 8mph /  12.9km/h 78% 0in /  0.0mm 223 W/m2
10:37 55.2 °F /  12.9 °C 48.2 °F /  9 °C 30.5in /  1031.2hPa WSW 4mph /  6.4km/h 13mph /  20.9km/h 77% 0in /  0.0mm 798 W/m2
10:42 55.4 °F /  13 °C 48.7 °F /  9.3 °C 30.4in /  1030.8hPa NW 14.1mph /  22.7km/h 14mph /  22.5km/h 78% 0in /  0.0mm 796 W/m2
10:47 55.8 °F /  13.2 °C 48 °F /  8.9 °C 30.5in /  1031.2hPa WNW 2mph /  3.2km/h 10mph /  16.1km/h 75% 0in /  0.0mm 752 W/m2
10:52 56.1 °F /  13.4 °C 48.9 °F /  9.4 °C 30.4in /  1030.8hPa WSW 8.1mph /  13km/h 9mph /  14.5km/h 77% 0in /  0.0mm 809 W/m2
10:57 56.5 °F /  13.6 °C 48.4 °F /  9.1 °C 30.4in /  1030.8hPa West 8.9mph /  14.3km/h 9mph /  14.5km/h 74% 0in /  0.0mm 728 W/m2
11:02 56.8 °F /  13.8 °C 47.8 °F /  8.8 °C 30.4in /  1030.8hPa WSW 4.9mph /  7.9km/h 12mph /  19.3km/h 72% 0in /  0.0mm 882 W/m2
11:07 56.8 °F /  13.8 °C 48.6 °F /  9.2 °C 30.4in /  1030.8hPa West 6mph /  9.7km/h 9mph /  14.5km/h 74% 0in /  0.0mm 800 W/m2
11:12 57 °F /  13.9 °C 48 °F /  8.9 °C 30.4in /  1030.8hPa NW 8.9mph /  14.3km/h 10mph /  16.1km/h 72% 0in /  0.0mm 800 W/m2
11:17 56.7 °F /  13.7 °C 47.7 °F /  8.7 °C 30.4in /  1030.8hPa WNW 8.9mph /  14.3km/h 10mph /  16.1km/h 72% 0in /  0.0mm 882 W/m2
11:22 56.7 °F /  13.7 °C 47.3 °F /  8.5 °C 30.4in /  1030.8hPa NNW 6mph /  9.7km/h 12mph /  19.3km/h 71% 0in /  0.0mm 900 W/m2
11:27 56.8 °F /  13.8 °C 47.5 °F /  8.6 °C 30.4in /  1030.8hPa West 11mph /  17.7km/h 11mph /  17.7km/h 71% 0in /  0.0mm 838 W/m2
11:32 57.4 °F /  14.1 °C 48 °F /  8.9 °C 30.4in /  1030.8hPa West 8.9mph /  14.3km/h 13mph /  20.9km/h 71% 0in /  0.0mm 1000 W/m2
11:37 57.6 °F /  14.2 °C 47.8 °F /  8.8 °C 30.4in /  1030.8hPa WNW 6.9mph /  11.1km/h 10mph /  16.1km/h 70% 0in /  0.0mm 304 W/m2
11:42 57.9 °F /  14.4 °C 47.5 °F /  8.6 °C 30.4in /  1030.8hPa West 10.1mph /  16.3km/h 14mph /  22.5km/h 68% 0in /  0.0mm 819 W/m2
11:47 58.3 °F /  14.6 °C 47.8 °F /  8.8 °C 30.4in /  1030.8hPa SW 2.9mph /  4.7km/h 10mph /  16.1km/h 68% 0in /  0.0mm 248 W/m2
11:52 57.9 °F /  14.4 °C 47.5 °F /  8.6 °C 30.5in /  1031.2hPa SW 14mph /  22.5km/h 14mph /  22.5km/h 68% 0in /  0.0mm 267 W/m2
11:57 57.7 °F /  14.3 °C 47.3 °F /  8.5 °C 30.5in /  1031.2hPa NW 4.9mph /  7.9km/h 8mph /  12.9km/h 68% 0in /  0.0mm 304 W/m2
12:02 57.6 °F /  14.2 °C 46.2 °F /  7.9 °C 30.5in /  1031.2hPa WNW 8.9mph /  14.3km/h 12mph /  19.3km/h 66% 0in /  0.0mm 202 W/m2
12:07 57.4 °F /  14.1 °C 46 °F /  7.8 °C 30.5in /  1031.2hPa WNW 6mph /  9.7km/h 10mph /  16.1km/h 66% 0in /  0.0mm 297 W/m2
12:12 57.6 °F /  14.2 °C 47.1 °F /  8.4 °C 30.5in /  1031.2hPa WNW 6.9mph /  11.1km/h 10mph /  16.1km/h 68% 0in /  0.0mm 334 W/m2
12:17 57.6 °F /  14.2 °C 46.8 °F /  8.2 °C 30.5in /  1031.2hPa WNW 12.1mph /  19.5km/h 12mph /  19.3km/h 67% 0in /  0.0mm 882 W/m2
12:22 58.3 °F /  14.6 °C 47.3 °F /  8.5 °C 30.5in /  1031.2hPa SW 2mph /  3.2km/h 9mph /  14.5km/h 67% 0in /  0.0mm 884 W/m2
12:27 58.8 °F /  14.9 °C 47.8 °F /  8.8 °C 30.5in /  1031.2hPa WSW 10.1mph /  16.3km/h 10mph /  16.1km/h 67% 0in /  0.0mm 870 W/m2
12:32 59.2 °F /  15.1 °C 46.9 °F /  8.3 °C 30.5in /  1031.2hPa NW 8.9mph /  14.3km/h 10mph /  16.1km/h 64% 0in /  0.0mm 867 W/m2
12:38 59.4 °F /  15.2 °C 48 °F /  8.9 °C 30.5in /  1031.2hPa West 8.1mph /  13km/h 13mph /  20.9km/h 66% 0in /  0.0mm 886 W/m2
12:43 59.4 °F /  15.2 °C 47.1 °F /  8.4 °C 30.5in /  1031.2hPa West 8.1mph /  13km/h 15mph /  24.1km/h 64% 0in /  0.0mm 877 W/m2
12:48 59.4 °F /  15.2 °C 46.8 °F /  8.2 °C 30.4in /  1030.8hPa WNW 4mph /  6.4km/h 6mph /  9.7km/h 63% 0in /  0.0mm 967 W/m2
12:53 59.9 °F /  15.5 °C 47.7 °F /  8.7 °C 30.4in /  1030.8hPa NW 4mph /  6.4km/h 6mph /  9.7km/h 64% 0in /  0.0mm 930 W/m2
12:58 60.1 °F /  15.6 °C 47.5 °F /  8.6 °C 30.4in /  1030.8hPa NW 6mph /  9.7km/h 7mph /  11.3km/h 63% 0in /  0.0mm 962 W/m2
13:03 60.3 °F /  15.7 °C 47.7 °F /  8.7 °C 30.4in /  1030.8hPa NW 8.9mph /  14.3km/h 12mph /  19.3km/h 63% 0in /  0.0mm 865 W/m2
13:08 60.1 °F /  15.6 °C 46.9 °F /  8.3 °C 30.4in /  1030.8hPa WNW 4mph /  6.4km/h 10mph /  16.1km/h 62% 0in /  0.0mm 911 W/m2
13:13 60.4 °F /  15.8 °C 46.9 °F /  8.3 °C 30.4in /  1030.8hPa NW 4.9mph /  7.9km/h 11mph /  17.7km/h 61% 0in /  0.0mm 889 W/m2
13:18 60.6 °F /  15.9 °C 46.6 °F /  8.1 °C 30.4in /  1030.8hPa NW 6.9mph /  11.1km/h 9mph /  14.5km/h 60% 0in /  0.0mm 942 W/m2
13:23 61 °F /  16.1 °C 48.4 °F /  9.1 °C 30.4in /  1030.8hPa NNW 4.9mph /  7.9km/h 10mph /  16.1km/h 63% 0in /  0.0mm 944 W/m2
13:28 60.8 °F /  16 °C 47.3 °F /  8.5 °C 30.4in /  1030.8hPa WNW 4mph /  6.4km/h 7mph /  11.3km/h 61% 0in /  0.0mm 543 W/m2
13:33 61 °F /  16.1 °C 47.5 °F /  8.6 °C 30.4in /  1030.8hPa NW 6mph /  9.7km/h 11mph /  17.7km/h 61% 0in /  0.0mm 856 W/m2
13:38 61.2 °F /  16.2 °C 47.1 °F /  8.4 °C 30.4in /  1030.5hPa NW 2mph /  3.2km/h 6mph /  9.7km/h 60% 0in /  0.0mm 807 W/m2
13:43 61.3 °F /  16.3 °C 46.9 °F /  8.3 °C 30.4in /  1030.5hPa West 4mph /  6.4km/h 10mph /  16.1km/h 59% 0in /  0.0mm 851 W/m2
13:48 61.5 °F /  16.4 °C 47.1 °F /  8.4 °C 30.4in /  1030.5hPa NW 10.1mph /  16.3km/h 11mph /  17.7km/h 59% 0in /  0.0mm 777 W/m2
13:54 62.1 °F /  16.7 °C 46.6 °F /  8.1 °C 30.4in /  1030.5hPa WSW 4mph /  6.4km/h 8mph /  12.9km/h 57% 0in /  0.0mm 807 W/m2
13:59 62.4 °F /  16.9 °C 47.5 °F /  8.6 °C 30.4in /  1030.5hPa West 4mph /  6.4km/h 10mph /  16.1km/h 58% 0in /  0.0mm 921 W/m2
14:04 62.4 °F /  16.9 °C 48.7 °F /  9.3 °C 30.4in /  1030.5hPa North 4mph /  6.4km/h 6mph /  9.7km/h 61% 0in /  0.0mm 802 W/m2
14:09 62.8 °F /  17.1 °C 47.8 °F /  8.8 °C 30.4in /  1030.5hPa WNW 8.9mph /  14.3km/h 12mph /  19.3km/h 58% 0in /  0.0mm 253 W/m2
14:14 62.4 °F /  16.9 °C 47.8 °F /  8.8 °C 30.4in /  1030.5hPa West 6mph /  9.7km/h 14mph /  22.5km/h 59% 0in /  0.0mm 911 W/m2
14:19 62.4 °F /  16.9 °C 47.5 °F /  8.6 °C 30.4in /  1030.5hPa NW 2.9mph /  4.7km/h 9mph /  14.5km/h 58% 0in /  0.0mm 867 W/m2
14:24 63.1 °F /  17.3 °C 48.2 °F /  9 °C 30.4in /  1030.5hPa WNW 4mph /  6.4km/h 14mph /  22.5km/h 58% 0in /  0.0mm 986 W/m2
14:29 63.1 °F /  17.3 °C 48.2 °F /  9 °C 30.4in /  1030.8hPa WNW 8.1mph /  13km/h 9mph /  14.5km/h 58% 0in /  0.0mm 251 W/m2
14:34 62.2 °F /  16.8 °C 47.7 °F /  8.7 °C 30.4in /  1030.8hPa West 8.1mph /  13km/h 8mph /  12.9km/h 59% 0in /  0.0mm 316 W/m2
14:39 61.9 °F /  16.6 °C 47.5 °F /  8.6 °C 30.4in /  1030.8hPa WNW 2.9mph /  4.7km/h 7mph /  11.3km/h 59% 0in /  0.0mm 258 W/m2
14:44 61.9 °F /  16.6 °C 47.8 °F /  8.8 °C 30.4in /  1030.8hPa West 4mph /  6.4km/h 12mph /  19.3km/h 60% 0in /  0.0mm 223 W/m2
14:49 61.5 °F /  16.4 °C 47.5 °F /  8.6 °C 30.4in /  1030.8hPa WNW 2.9mph /  4.7km/h 12mph /  19.3km/h 60% 0in /  0.0mm 338 W/m2
14:54 61.7 °F /  16.5 °C 47.7 °F /  8.7 °C 30.4in /  1030.8hPa WNW 2.9mph /  4.7km/h 9mph /  14.5km/h 60% 0in /  0.0mm 475 W/m2
14:59 61.9 °F /  16.6 °C 47.8 °F /  8.8 °C 30.4in /  1030.8hPa NW 2.9mph /  4.7km/h 11mph /  17.7km/h 60% 0in /  0.0mm 295 W/m2
15:04 61.5 °F /  16.4 °C 47.5 °F /  8.6 °C 30.5in /  1031.2hPa WSW 8.1mph /  13km/h 9mph /  14.5km/h 60% 0in /  0.0mm 318 W/m2
15:09 61.3 °F /  16.3 °C 47.8 °F /  8.8 °C 30.5in /  1031.2hPa NW 4mph /  6.4km/h 6mph /  9.7km/h 61% 0in /  0.0mm 318 W/m2
15:14 61.3 °F /  16.3 °C 47.8 °F /  8.8 °C 30.4in /  1030.8hPa West 6mph /  9.7km/h 6mph /  9.7km/h 61% 0in /  0.0mm 362 W/m2
15:19 61.7 °F /  16.5 °C 48.6 °F /  9.2 °C 30.4in /  1030.8hPa West 4mph /  6.4km/h 7mph /  11.3km/h 62% 0in /  0.0mm 350 W/m2
15:24 61.9 °F /  16.6 °C 48.2 °F /  9 °C 30.4in /  1030.8hPa West 8.9mph /  14.3km/h 9mph /  14.5km/h 61% 0in /  0.0mm 299 W/m2
15:29 61.9 °F /  16.6 °C 48.2 °F /  9 °C 30.4in /  1030.8hPa NW 4.9mph /  7.9km/h 11mph /  17.7km/h 61% 0in /  0.0mm 269 W/m2
15:34 62.1 °F /  16.7 °C 48.9 °F /  9.4 °C 30.4in /  1030.8hPa WNW 4mph /  6.4km/h 8mph /  12.9km/h 62% 0in /  0.0mm 380 W/m2
15:39 62.1 °F /  16.7 °C 48.4 °F /  9.1 °C 30.5in /  1031.2hPa NNW 4mph /  6.4km/h 11mph /  17.7km/h 61% 0in /  0.0mm 355 W/m2
15:44 61.9 °F /  16.6 °C 48.7 °F /  9.3 °C 30.4in /  1030.8hPa WNW 2.9mph /  4.7km/h 7mph /  11.3km/h 62% 0in /  0.0mm 229 W/m2
15:49 61.7 °F /  16.5 °C 48.6 °F /  9.2 °C 30.5in /  1031.2hPa West 2mph /  3.2km/h 8mph /  12.9km/h 62% 0in /  0.0mm 318 W/m2
15:54 61.9 °F /  16.6 °C 49.1 °F /  9.5 °C 30.4in /  1030.8hPa WNW 6.9mph /  11.1km/h 10mph /  16.1km/h 63% 0in /  0.0mm 432 W/m2
15:59 62.6 °F /  17 °C 49.8 °F /  9.9 °C 30.4in /  1030.8hPa WNW 2mph /  3.2km/h 7mph /  11.3km/h 63% 0in /  0.0mm 605 W/m2
16:04 63.7 °F /  17.6 °C 49.1 °F /  9.5 °C 30.4in /  1030.8hPa WNW 4mph /  6.4km/h 10mph /  16.1km/h 59% 0in /  0.0mm 410 W/m2
16:09 63.7 °F /  17.6 °C 49.5 °F /  9.7 °C 30.4in /  1030.8hPa West 4mph /  6.4km/h 6mph /  9.7km/h 60% 0in /  0.0mm 863 W/m2
16:14 63.5 °F /  17.5 °C 49.3 °F /  9.6 °C 30.4in /  1030.8hPa WNW 6.9mph /  11.1km/h 9mph /  14.5km/h 60% 0in /  0.0mm 450 W/m2
16:19 63.3 °F /  17.4 °C 49.3 °F /  9.6 °C 30.4in /  1030.8hPa NNW 2mph /  3.2km/h 5mph /  8km/h 60% 0in /  0.0mm 320 W/m2
16:24 63.1 °F /  17.3 °C 49.5 °F /  9.7 °C 30.4in /  1030.8hPa SW 8.9mph /  14.3km/h 11mph /  17.7km/h 61% 0in /  0.0mm 251 W/m2
16:29 63 °F /  17.2 °C 49.3 °F /  9.6 °C 30.5in /  1031.2hPa West 10.1mph /  16.3km/h 13mph /  20.9km/h 61% 0in /  0.0mm 844 W/m2
16:34 63.5 °F /  17.5 °C 50.2 °F /  10.1 °C 30.4in /  1030.8hPa West 8.1mph /  13km/h 8mph /  12.9km/h 62% 0in /  0.0mm 394 W/m2
16:39 63.3 °F /  17.4 °C 49.6 °F /  9.8 °C 30.4in /  1030.8hPa West 4mph /  6.4km/h 13mph /  20.9km/h 61% 0in /  0.0mm 302 W/m2
16:44 63.1 °F /  17.3 °C 49.1 °F /  9.5 °C 30.4in /  1030.8hPa NW 2mph /  3.2km/h 8mph /  12.9km/h 60% 0in /  0.0mm 246 W/m2
16:49 63.1 °F /  17.3 °C 49.5 °F /  9.7 °C 30.4in /  1030.8hPa WNW 4.9mph /  7.9km/h 10mph /  16.1km/h 61% 0in /  0.0mm 197 W/m2
16:54 62.8 °F /  17.1 °C 49.6 °F /  9.8 °C 30.4in /  1030.8hPa West 2.9mph /  4.7km/h 6mph /  9.7km/h 62% 0in /  0.0mm 239 W/m2
16:59 62.8 °F /  17.1 °C 49.6 °F /  9.8 °C 30.4in /  1030.8hPa NW 4mph /  6.4km/h 9mph /  14.5km/h 62% 0in /  0.0mm 343 W/m2
17:04 63.1 °F /  17.3 °C 49.8 °F /  9.9 °C 30.4in /  1030.5hPa NW 4mph /  6.4km/h 8mph /  12.9km/h 62% 0in /  0.0mm 336 W/m2
17:09 63.3 °F /  17.4 °C 49.6 °F /  9.8 °C 30.4in /  1030.8hPa West 6mph /  9.7km/h 7mph /  11.3km/h 61% 0in /  0.0mm 302 W/m2
17:15 63.3 °F /  17.4 °C 49.6 °F /  9.8 °C 30.4in /  1030.5hPa WNW 8.1mph /  13km/h 12mph /  19.3km/h 61% 0in /  0.0mm 327 W/m2
17:20 63.3 °F /  17.4 °C 49.6 °F /  9.8 °C 30.4in /  1030.5hPa NW 6.9mph /  11.1km/h 10mph /  16.1km/h 61% 0in /  0.0mm 392 W/m2
17:25 63.1 °F /  17.3 °C 49.5 °F /  9.7 °C 30.4in /  1030.5hPa WNW 2.9mph /  4.7km/h 12mph /  19.3km/h 61% 0in /  0.0mm 283 W/m2
17:30 63.3 °F /  17.4 °C 50 °F /  10 °C 30.4in /  1030.5hPa WSW 4mph /  6.4km/h 8mph /  12.9km/h 62% 0in /  0.0mm 585 W/m2
17:35 63.9 °F /  17.7 °C 49.6 °F /  9.8 °C 30.4in /  1030.5hPa West 2.9mph /  4.7km/h 9mph /  14.5km/h 60% 0in /  0.0mm 352 W/m2
17:40 63.7 °F /  17.6 °C 50 °F /  10 °C 30.4in /  1030.5hPa WNW 4mph /  6.4km/h 12mph /  19.3km/h 61% 0in /  0.0mm 211 W/m2
17:45 63.7 °F /  17.6 °C 50.4 °F /  10.2 °C 30.4in /  1030.5hPa WSW 4mph /  6.4km/h 7mph /  11.3km/h 62% 0in /  0.0mm 197 W/m2
17:50 64 °F /  17.8 °C 49.8 °F /  9.9 °C 30.4in /  1030.5hPa WNW 8.9mph /  14.3km/h 12mph /  19.3km/h 60% 0in /  0.0mm 468 W/m2
17:55 64 °F /  17.8 °C 49.5 °F /  9.7 °C 30.4in /  1030.5hPa WNW 6.9mph /  11.1km/h 11mph /  17.7km/h 59% 0in /  0.0mm 432 W/m2
18:00 64 °F /  17.8 °C 49.5 °F /  9.7 °C 30.4in /  1030.5hPa West 8.1mph /  13km/h 10mph /  16.1km/h 59% 0in /  0.0mm 417 W/m2
18:05 64.2 °F /  17.9 °C 49.6 °F /  9.8 °C 30.4in /  1030.5hPa North 6.9mph /  11.1km/h 11mph /  17.7km/h 59% 0in /  0.0mm 388 W/m2
18:10 64.2 °F /  17.9 °C 49.6 °F /  9.8 °C 30.4in /  1030.5hPa WNW 6.9mph /  11.1km/h 10mph /  16.1km/h 59% 0in /  0.0mm 443 W/m2
18:15 64.2 °F /  17.9 °C 50 °F /  10 °C 30.4in /  1030.5hPa West 6mph /  9.7km/h 9mph /  14.5km/h 60% 0in /  0.0mm 403 W/m2
18:20 64.2 °F /  17.9 °C 50 °F /  10 °C 30.4in /  1030.5hPa WNW 4mph /  6.4km/h 10mph /  16.1km/h 60% 0in /  0.0mm 396 W/m2
18:25 64.6 °F /  18.1 °C 50.4 °F /  10.2 °C 30.4in /  1030.5hPa WNW 4mph /  6.4km/h 10mph /  16.1km/h 60% 0in /  0.0mm 362 W/m2
18:30 64.2 °F /  17.9 °C 50 °F /  10 °C 30.4in /  1030.5hPa NW 8.1mph /  13km/h 10mph /  16.1km/h 60% 0in /  0.0mm 253 W/m2
18:35 64 °F /  17.8 °C 49.8 °F /  9.9 °C 30.4in /  1030.5hPa WNW 4mph /  6.4km/h 8mph /  12.9km/h 60% 0in /  0.0mm 255 W/m2
18:40 63.9 °F /  17.7 °C 49.6 °F /  9.8 °C 30.4in /  1030.5hPa WNW 4mph /  6.4km/h 16mph /  25.7km/h 60% 0in /  0.0mm 257 W/m2
18:45 63.5 °F /  17.5 °C 49.8 °F /  9.9 °C 30.4in /  1030.5hPa NW 10.1mph /  16.3km/h 10mph /  16.1km/h 61% 0in /  0.0mm 244 W/m2
18:50 63.3 °F /  17.4 °C 49.6 °F /  9.8 °C 30.4in /  1030.5hPa WSW 2.9mph /  4.7km/h 9mph /  14.5km/h 61% 0in /  0.0mm 186 W/m2
18:55 63.3 °F /  17.4 °C 50.5 °F /  10.3 °C 30.4in /  1030.5hPa West 6mph /  9.7km/h 6mph /  9.7km/h 63% 0in /  0.0mm 223 W/m2
19:00 63.5 °F /  17.5 °C 50.7 °F /  10.4 °C 30.4in /  1030.5hPa WNW 2mph /  3.2km/h 6mph /  9.7km/h 63% 0in /  0.0mm 216 W/m2
19:05 63.7 °F /  17.6 °C 49.5 °F /  9.7 °C 30.4in /  1030.5hPa WNW 4.9mph /  7.9km/h 13mph /  20.9km/h 60% 0in /  0.0mm 213 W/m2
19:10 63.5 °F /  17.5 °C 50.2 °F /  10.1 °C 30.4in /  1030.5hPa NW 4.9mph /  7.9km/h 9mph /  14.5km/h 62% 0in /  0.0mm 195 W/m2
19:15 63.3 °F /  17.4 °C 50.5 °F /  10.3 °C 30.4in /  1030.5hPa WNW 4mph /  6.4km/h 13mph /  20.9km/h 63% 0in /  0.0mm 216 W/m2
19:21 63.3 °F /  17.4 °C 50.5 °F /  10.3 °C 30.4in /  1030.5hPa West 4mph /  6.4km/h 8mph /  12.9km/h 63% 0in /  0.0mm 237 W/m2
19:26 63.7 °F /  17.6 °C 50.4 °F /  10.2 °C 30.4in /  1030.5hPa WNW 2.9mph /  4.7km/h 11mph /  17.7km/h 62% 0in /  0.0mm 246 W/m2
19:31 63.7 °F /  17.6 °C 50 °F /  10 °C 30.4in /  1030.5hPa WNW 4mph /  6.4km/h 13mph /  20.9km/h 61% 0in /  0.0mm 230 W/m2
19:36 63.3 °F /  17.4 °C 49.6 °F /  9.8 °C 30.4in /  1030.5hPa NW 6mph /  9.7km/h 8mph /  12.9km/h 61% 0in /  0.0mm 193 W/m2
19:41 63.1 °F /  17.3 °C 49.5 °F /  9.7 °C 30.4in /  1030.5hPa West 4mph /  6.4km/h 11mph /  17.7km/h 61% 0in /  0.0mm 178 W/m2
19:46 62.8 °F /  17.1 °C 50 °F /  10 °C 30.4in /  1030.5hPa WNW 6.9mph /  11.1km/h 11mph /  17.7km/h 63% 0in /  0.0mm 86 W/m2
19:51 62.2 °F /  16.8 °C 49.5 °F /  9.7 °C 30.4in /  1030.5hPa West 6mph /  9.7km/h 12mph /  19.3km/h 63% 0in /  0.0mm 93 W/m2
19:56 61.9 °F /  16.6 °C 49.6 °F /  9.8 °C 30.4in /  1030.5hPa West 8.1mph /  13km/h 8mph /  12.9km/h 64% 0in /  0.0mm 91 W/m2
20:01 62.1 °F /  16.7 °C 50.2 °F /  10.1 °C 30.4in /  1030.5hPa West 6.9mph /  11.1km/h 12mph /  19.3km/h 65% 0in /  0.0mm 128 W/m2
20:06 62.1 °F /  16.7 °C 50.2 °F /  10.1 °C 30.4in /  1030.5hPa West 4mph /  6.4km/h 4mph /  6.4km/h 65% 0in /  0.0mm 111 W/m2
20:11 62.2 °F /  16.8 °C 50.4 °F /  10.2 °C 30.4in /  1030.8hPa West 4mph /  6.4km/h 9mph /  14.5km/h 65% 0in /  0.0mm 107 W/m2
20:16 62.1 °F /  16.7 °C 50.5 °F /  10.3 °C 30.4in /  1030.8hPa WSW 4mph /  6.4km/h 8mph /  12.9km/h 66% 0in /  0.0mm 95 W/m2
20:21 61.9 °F /  16.6 °C 50.4 °F /  10.2 °C 30.4in /  1030.8hPa West 2mph /  3.2km/h 9mph /  14.5km/h 66% 0in /  0.0mm 91 W/m2
20:26 61.9 °F /  16.6 °C 50.7 °F /  10.4 °C 30.4in /  1030.8hPa WNW 2.9mph /  4.7km/h 4mph /  6.4km/h 67% 0in /  0.0mm 84 W/m2
20:31 61.9 °F /  16.6 °C 50.7 °F /  10.4 °C 30.4in /  1030.8hPa WNW 2.9mph /  4.7km/h 8mph /  12.9km/h 67% 0in /  0.0mm 77 W/m2
20:36 61.5 °F /  16.4 °C 50.5 °F /  10.3 °C 30.4in /  1030.8hPa West 4mph /  6.4km/h 6mph /  9.7km/h 67% 0in /  0.0mm 44 W/m2
20:41 61.2 °F /  16.2 °C 50.5 °F /  10.3 °C 30.4in /  1030.8hPa WSW 2.9mph /  4.7km/h 5mph /  8km/h 68% 0in /  0.0mm 30 W/m2
20:46 60.6 °F /  15.9 °C 50.4 °F /  10.2 °C 30.5in /  1031.2hPa West 2mph /  3.2km/h 6mph /  9.7km/h 69% 0in /  0.0mm 25 W/m2
20:51 60.3 °F /  15.7 °C 50.4 °F /  10.2 °C 30.5in /  1031.2hPa WSW 4.9mph /  7.9km/h 7mph /  11.3km/h 70% 0in /  0.0mm 23 W/m2
20:56 60.1 °F /  15.6 °C 50.7 °F /  10.4 °C 30.5in /  1031.2hPa WNW 2.9mph /  4.7km/h 6mph /  9.7km/h 71% 0in /  0.0mm 19 W/m2
21:01 59.7 °F /  15.4 °C 50.4 °F /  10.2 °C 30.5in /  1031.2hPa West 6.9mph /  11.1km/h 7mph /  11.3km/h 71% 0in /  0.0mm 14 W/m2
21:06 59.5 °F /  15.3 °C 50.5 °F /  10.3 °C 30.5in /  1031.2hPa WSW 2.9mph /  4.7km/h 4mph /  6.4km/h 72% 0in /  0.0mm 12 W/m2
21:11 59.4 °F /  15.2 °C 50.4 °F /  10.2 °C 30.5in /  1031.2hPa West 2mph /  3.2km/h 4mph /  6.4km/h 72% 0in /  0.0mm 11 W/m2
21:16 59 °F /  15 °C 50.4 °F /  10.2 °C 30.5in /  1031.2hPa Calm   2mph /  3.2km/h 73% 0in /  0.0mm 7 W/m2
21:21 58.8 °F /  14.9 °C 50.2 °F /  10.1 °C 30.5in /  1031.2hPa WSW 2mph /  3.2km/h 3mph /  4.8km/h 73% 0in /  0.0mm 0 W/m2
21:26 58.6 °F /  14.8 °C 50.4 °F /  10.2 °C 30.5in /  1031.2hPa West 2mph /  3.2km/h 3mph /  4.8km/h 74% 0in /  0.0mm 0 W/m2
21:31 58.5 °F /  14.7 °C 50.2 °F /  10.1 °C 30.5in /  1031.2hPa West 2.9mph /  4.7km/h 3mph /  4.8km/h 74% 0in /  0.0mm 0 W/m2
21:36 58.5 °F /  14.7 °C 50.5 °F /  10.3 °C 30.5in /  1031.2hPa West 0.9mph /  1.4km/h 1mph /  1.6km/h 75% 0in /  0.0mm 0 W/m2
21:41 58.3 °F /  14.6 °C 50.4 °F /  10.2 °C 30.5in /  1031.5hPa West 0.9mph /  1.4km/h 3mph /  4.8km/h 75% 0in /  0.0mm 0 W/m2
21:46 57.7 °F /  14.3 °C 50.2 °F /  10.1 °C 30.5in /  1031.5hPa Calm     76% 0in /  0.0mm 0 W/m2
21:52 57.6 °F /  14.2 °C 50.7 °F /  10.4 °C 30.5in /  1031.5hPa West 0.9mph /  1.4km/h 1mph /  1.6km/h 78% 0in /  0.0mm 0 W/m2
21:57 57 °F /  13.9 °C 50.5 °F /  10.3 °C 30.5in /  1031.5hPa West 0.9mph /  1.4km/h 1mph /  1.6km/h 79% 0in /  0.0mm 0 W/m2
22:02 56.8 °F /  13.8 °C 50.7 °F /  10.4 °C 30.5in /  1031.5hPa Calm     80% 0in /  0.0mm 0 W/m2
22:07 56.7 °F /  13.7 °C 50.9 °F /  10.5 °C 30.5in /  1031.5hPa Calm     81% 0in /  0.0mm 0 W/m2
22:12 56.5 °F /  13.6 °C 50.7 °F /  10.4 °C 30.5in /  1031.5hPa Calm     81% 0in /  0.0mm 0 W/m2
22:17 56.1 °F /  13.4 °C 50.7 °F /  10.4 °C 30.5in /  1031.5hPa Calm     82% 0in /  0.0mm 0 W/m2
22:22 55.9 °F /  13.3 °C 50.5 °F /  10.3 °C 30.5in /  1031.5hPa Calm     82% 0in /  0.0mm 0 W/m2
22:27 55.9 °F /  13.3 °C 50.9 °F /  10.5 °C 30.5in /  1031.5hPa Calm     83% 0in /  0.0mm 0 W/m2
22:32 55.8 °F /  13.2 °C 50.7 °F /  10.4 °C 30.5in /  1031.5hPa Calm     83% 0in /  0.0mm 0 W/m2
22:37 55.8 °F /  13.2 °C 50.7 °F /  10.4 °C 30.5in /  1031.5hPa Calm   1mph /  1.6km/h 83% 0in /  0.0mm 0 W/m2
22:42 55.8 °F /  13.2 °C 50.7 °F /  10.4 °C 30.5in /  1031.5hPa Calm     83% 0in /  0.0mm 0 W/m2
22:47 55.6 °F /  13.1 °C 50.9 °F /  10.5 °C 30.5in /  1031.5hPa Calm     84% 0in /  0.0mm 0 W/m2
22:52 55.6 °F /  13.1 °C 50.9 °F /  10.5 °C 30.5in /  1031.5hPa Calm     84% 0in /  0.0mm 0 W/m2
22:57 55.6 °F /  13.1 °C 50.9 °F /  10.5 °C 30.5in /  1031.5hPa Calm     84% 0in /  0.0mm 0 W/m2
23:02 55.2 °F /  12.9 °C 50.5 °F /  10.3 °C 30.5in /  1031.5hPa Calm     84% 0in /  0.0mm 0 W/m2
23:07 55 °F /  12.8 °C 50.4 °F /  10.2 °C 30.5in /  1031.5hPa Calm     84% 0in /  0.0mm 0 W/m2
23:12 54.9 °F /  12.7 °C 50.4 °F /  10.2 °C 30.5in /  1031.5hPa West 2mph /  3.2km/h 2mph /  3.2km/h 85% 0in /  0.0mm 0 W/m2
23:17 54.7 °F /  12.6 °C 50.5 °F /  10.3 °C 30.5in /  1031.8hPa Calm   2mph /  3.2km/h 86% 0in /  0.0mm 0 W/m2
23:22 54.3 °F /  12.4 °C 50.2 °F /  10.1 °C 30.5in /  1031.8hPa Calm   1mph /  1.6km/h 86% 0in /  0.0mm 0 W/m2
23:27 54.1 °F /  12.3 °C 50 °F /  10 °C 30.5in /  1031.8hPa Calm   1mph /  1.6km/h 86% 0in /  0.0mm 0 W/m2
23:32 54 °F /  12.2 °C 50.2 °F /  10.1 °C 30.5in /  1031.8hPa Calm     87% 0in /  0.0mm 0 W/m2
23:37 53.8 °F /  12.1 °C 50 °F /  10 °C 30.5in /  1031.8hPa Calm   1mph /  1.6km/h 87% 0in /  0.0mm 0 W/m2
23:42 53.4 °F /  11.9 °C 50 °F /  10 °C 30.5in /  1031.8hPa SSW 2mph /  3.2km/h 2mph /  3.2km/h 88% 0in /  0.0mm 0 W/m2
23:47 53.2 °F /  11.8 °C 49.8 °F /  9.9 °C 30.5in /  1031.8hPa Calm   1mph /  1.6km/h 88% 0in /  0.0mm 0 W/m2
23:52 53.2 °F /  11.8 °C 49.8 °F /  9.9 °C 30.5in /  1031.5hPa Calm     88% 0in /  0.0mm 0 W/m2
23:57 53.2 °F /  11.8 °C 49.8 °F /  9.9 °C 30.5in /  1031.8hPa Calm     88% 0in /  0.0mm 0 W/m2
Juneau County Weather
Compliments of Weather Underground - 4 mb